sensor_id;sensor_type;location;lat;lon;timestamp;P1;durP1;ratioP1;P2;durP2;ratioP2
63087;SDS011;49173;43.164;27.786;2024-01-16T00:02:25;9.63;;;6.70;;
63087;SDS011;49173;43.164;27.786;2024-01-16T00:04:51;11.85;;;6.22;;
63087;SDS011;49173;43.164;27.786;2024-01-16T00:07:17;9.70;;;5.78;;
63087;SDS011;49173;43.164;27.786;2024-01-16T00:09:46;11.20;;;5.88;;
63087;SDS011;49173;43.164;27.786;2024-01-16T00:12:18;9.27;;;5.72;;
63087;SDS011;49173;43.164;27.786;2024-01-16T00:14:46;6.70;;;4.38;;
63087;SDS011;49173;43.164;27.786;2024-01-16T00:17:12;8.77;;;4.60;;
63087;SDS011;49173;43.164;27.786;2024-01-16T00:19:39;8.38;;;5.22;;
63087;SDS011;49173;43.164;27.786;2024-01-16T00:22:08;8.57;;;5.55;;
63087;SDS011;49173;43.164;27.786;2024-01-16T00:24:34;11.25;;;6.13;;
63087;SDS011;49173;43.164;27.786;2024-01-16T00:27:04;12.25;;;7.15;;
63087;SDS011;49173;43.164;27.786;2024-01-16T00:29:30;10.10;;;7.20;;
63087;SDS011;49173;43.164;27.786;2024-01-16T00:31:59;12.68;;;8.48;;
63087;SDS011;49173;43.164;27.786;2024-01-16T00:34:26;14.32;;;8.80;;
63087;SDS011;49173;43.164;27.786;2024-01-16T00:36:53;15.63;;;9.23;;
63087;SDS011;49173;43.164;27.786;2024-01-16T00:39:23;14.63;;;8.32;;
63087;SDS011;49173;43.164;27.786;2024-01-16T00:41:51;12.30;;;7.93;;
63087;SDS011;49173;43.164;27.786;2024-01-16T00:44:19;11.00;;;7.22;;
63087;SDS011;49173;43.164;27.786;2024-01-16T00:46:50;12.43;;;8.20;;
63087;SDS011;49173;43.164;27.786;2024-01-16T00:49:18;12.45;;;7.53;;
63087;SDS011;49173;43.164;27.786;2024-01-16T00:51:44;14.95;;;9.73;;
63087;SDS011;49173;43.164;27.786;2024-01-16T00:54:13;12.07;;;7.68;;
63087;SDS011;49173;43.164;27.786;2024-01-16T00:56:41;12.90;;;8.52;;
63087;SDS011;49173;43.164;27.786;2024-01-16T00:59:10;11.90;;;7.50;;
63087;SDS011;49173;43.164;27.786;2024-01-16T01:01:37;10.10;;;6.68;;
63087;SDS011;49173;43.164;27.786;2024-01-16T01:04:06;7.97;;;5.88;;
63087;SDS011;49173;43.164;27.786;2024-01-16T01:06:35;9.25;;;6.03;;
63087;SDS011;49173;43.164;27.786;2024-01-16T01:09:05;9.10;;;5.28;;
63087;SDS011;49173;43.164;27.786;2024-01-16T01:11:37;8.30;;;5.40;;
63087;SDS011;49173;43.164;27.786;2024-01-16T01:14:04;8.48;;;5.90;;
63087;SDS011;49173;43.164;27.786;2024-01-16T01:16:32;12.75;;;5.93;;
63087;SDS011;49173;43.164;27.786;2024-01-16T01:19:02;11.00;;;6.78;;
63087;SDS011;49173;43.164;27.786;2024-01-16T01:21:29;12.63;;;5.18;;
63087;SDS011;49173;43.164;27.786;2024-01-16T01:23:57;10.65;;;5.50;;
63087;SDS011;49173;43.164;27.786;2024-01-16T01:26:26;10.00;;;6.90;;
63087;SDS011;49173;43.164;27.786;2024-01-16T01:28:53;20.83;;;10.63;;
63087;SDS011;49173;43.164;27.786;2024-01-16T01:31:24;14.73;;;8.65;;
63087;SDS011;49173;43.164;27.786;2024-01-16T01:33:52;14.88;;;7.10;;
63087;SDS011;49173;43.164;27.786;2024-01-16T01:36:19;12.50;;;6.13;;
63087;SDS011;49173;43.164;27.786;2024-01-16T01:38:48;9.68;;;6.53;;
63087;SDS011;49173;43.164;27.786;2024-01-16T01:41:18;11.13;;;7.05;;
63087;SDS011;49173;43.164;27.786;2024-01-16T01:43:47;12.88;;;6.70;;
63087;SDS011;49173;43.164;27.786;2024-01-16T01:46:16;8.67;;;5.97;;
63087;SDS011;49173;43.164;27.786;2024-01-16T01:48:47;9.52;;;5.97;;
63087;SDS011;49173;43.164;27.786;2024-01-16T01:51:17;9.00;;;6.35;;
63087;SDS011;49173;43.164;27.786;2024-01-16T01:53:47;8.77;;;5.80;;
63087;SDS011;49173;43.164;27.786;2024-01-16T01:56:17;8.02;;;5.40;;
63087;SDS011;49173;43.164;27.786;2024-01-16T01:58:47;8.15;;;4.97;;
63087;SDS011;49173;43.164;27.786;2024-01-16T02:01:20;11.70;;;5.65;;
63087;SDS011;49173;43.164;27.786;2024-01-16T02:03:49;8.93;;;5.00;;
63087;SDS011;49173;43.164;27.786;2024-01-16T02:06:20;9.10;;;5.32;;
63087;SDS011;49173;43.164;27.786;2024-01-16T02:08:52;8.35;;;5.15;;
63087;SDS011;49173;43.164;27.786;2024-01-16T02:11:21;6.10;;;4.60;;
63087;SDS011;49173;43.164;27.786;2024-01-16T02:13:47;9.65;;;5.28;;
63087;SDS011;49173;43.164;27.786;2024-01-16T02:16:22;9.43;;;5.03;;
63087;SDS011;49173;43.164;27.786;2024-01-16T02:18:51;8.38;;;5.20;;
63087;SDS011;49173;43.164;27.786;2024-01-16T02:21:25;7.97;;;5.00;;
63087;SDS011;49173;43.164;27.786;2024-01-16T02:23:57;8.02;;;5.20;;
63087;SDS011;49173;43.164;27.786;2024-01-16T02:26:27;10.00;;;6.90;;
63087;SDS011;49173;43.164;27.786;2024-01-16T02:29:00;12.27;;;8.88;;
63087;SDS011;49173;43.164;27.786;2024-01-16T02:31:31;8.73;;;5.72;;
63087;SDS011;49173;43.164;27.786;2024-01-16T02:36:27;9.05;;;5.25;;
63087;SDS011;49173;43.164;27.786;2024-01-16T02:38:55;10.15;;;7.93;;
63087;SDS011;49173;43.164;27.786;2024-01-16T02:41:22;9.30;;;6.72;;
63087;SDS011;49173;43.164;27.786;2024-01-16T02:43:54;10.15;;;6.38;;
63087;SDS011;49173;43.164;27.786;2024-01-16T02:46:22;9.73;;;5.85;;
63087;SDS011;49173;43.164;27.786;2024-01-16T02:48:48;9.30;;;5.80;;
63087;SDS011;49173;43.164;27.786;2024-01-16T02:51:16;10.43;;;6.47;;
63087;SDS011;49173;43.164;27.786;2024-01-16T02:53:42;10.63;;;6.47;;
63087;SDS011;49173;43.164;27.786;2024-01-16T02:56:10;11.68;;;7.00;;
63087;SDS011;49173;43.164;27.786;2024-01-16T02:58:39;10.63;;;7.20;;
63087;SDS011;49173;43.164;27.786;2024-01-16T03:01:07;10.40;;;6.70;;
63087;SDS011;49173;43.164;27.786;2024-01-16T03:03:34;10.32;;;6.80;;
63087;SDS011;49173;43.164;27.786;2024-01-16T03:06:04;8.93;;;5.60;;
63087;SDS011;49173;43.164;27.786;2024-01-16T03:08:36;8.20;;;4.85;;
63087;SDS011;49173;43.164;27.786;2024-01-16T03:11:03;15.85;;;8.90;;
63087;SDS011;49173;43.164;27.786;2024-01-16T03:13:32;22.08;;;10.85;;
63087;SDS011;49173;43.164;27.786;2024-01-16T03:15:59;18.27;;;10.18;;
63087;SDS011;49173;43.164;27.786;2024-01-16T03:18:32;17.25;;;9.00;;
63087;SDS011;49173;43.164;27.786;2024-01-16T03:21:05;12.55;;;6.78;;
63087;SDS011;49173;43.164;27.786;2024-01-16T03:23:33;12.35;;;7.03;;
63087;SDS011;49173;43.164;27.786;2024-01-16T03:26:02;11.30;;;6.70;;
63087;SDS011;49173;43.164;27.786;2024-01-16T03:28:29;9.48;;;6.10;;
63087;SDS011;49173;43.164;27.786;2024-01-16T03:30:56;11.98;;;7.72;;
63087;SDS011;49173;43.164;27.786;2024-01-16T03:33:25;10.45;;;7.07;;
63087;SDS011;49173;43.164;27.786;2024-01-16T03:35:51;17.83;;;10.52;;
63087;SDS011;49173;43.164;27.786;2024-01-16T03:38:20;12.85;;;8.98;;
63087;SDS011;49173;43.164;27.786;2024-01-16T03:40:48;28.95;;;16.42;;
63087;SDS011;49173;43.164;27.786;2024-01-16T03:43:17;55.50;;;28.42;;
63087;SDS011;49173;43.164;27.786;2024-01-16T03:45:46;42.28;;;21.25;;
63087;SDS011;49173;43.164;27.786;2024-01-16T03:48:12;24.40;;;16.10;;
63087;SDS011;49173;43.164;27.786;2024-01-16T03:50:41;25.90;;;14.38;;
63087;SDS011;49173;43.164;27.786;2024-01-16T03:53:10;23.92;;;14.80;;
63087;SDS011;49173;43.164;27.786;2024-01-16T03:55:38;45.42;;;21.15;;
63087;SDS011;49173;43.164;27.786;2024-01-16T03:58:07;47.88;;;21.17;;
63087;SDS011;49173;43.164;27.786;2024-01-16T04:00:35;30.25;;;15.95;;
63087;SDS011;49173;43.164;27.786;2024-01-16T04:03:06;55.75;;;23.52;;
63087;SDS011;49173;43.164;27.786;2024-01-16T04:05:33;70.18;;;31.38;;
63087;SDS011;49173;43.164;27.786;2024-01-16T04:08:00;50.83;;;25.17;;
63087;SDS011;49173;43.164;27.786;2024-01-16T04:10:31;33.70;;;18.45;;
63087;SDS011;49173;43.164;27.786;2024-01-16T04:13:00;36.97;;;20.50;;
63087;SDS011;49173;43.164;27.786;2024-01-16T04:15:28;26.80;;;16.50;;
63087;SDS011;49173;43.164;27.786;2024-01-16T04:17:57;19.48;;;12.07;;
63087;SDS011;49173;43.164;27.786;2024-01-16T04:20:27;24.00;;;13.90;;
63087;SDS011;49173;43.164;27.786;2024-01-16T04:22:56;20.02;;;12.88;;
63087;SDS011;49173;43.164;27.786;2024-01-16T04:25:23;21.60;;;14.07;;
63087;SDS011;49173;43.164;27.786;2024-01-16T04:27:50;17.33;;;12.13;;
63087;SDS011;49173;43.164;27.786;2024-01-16T04:30:19;17.30;;;12.43;;
63087;SDS011;49173;43.164;27.786;2024-01-16T04:32:47;15.70;;;9.52;;
63087;SDS011;49173;43.164;27.786;2024-01-16T04:35:14;14.35;;;9.40;;
63087;SDS011;49173;43.164;27.786;2024-01-16T04:37:43;10.65;;;7.72;;
63087;SDS011;49173;43.164;27.786;2024-01-16T04:40:11;9.88;;;6.93;;
63087;SDS011;49173;43.164;27.786;2024-01-16T04:42:40;12.75;;;8.43;;
63087;SDS011;49173;43.164;27.786;2024-01-16T04:45:11;9.32;;;6.95;;
63087;SDS011;49173;43.164;27.786;2024-01-16T04:47:37;20.02;;;10.55;;
63087;SDS011;49173;43.164;27.786;2024-01-16T04:50:03;21.98;;;12.13;;
63087;SDS011;49173;43.164;27.786;2024-01-16T04:52:33;23.10;;;11.23;;
63087;SDS011;49173;43.164;27.786;2024-01-16T04:55:01;15.07;;;10.07;;
63087;SDS011;49173;43.164;27.786;2024-01-16T04:57:29;12.07;;;7.70;;
63087;SDS011;49173;43.164;27.786;2024-01-16T04:59:56;11.68;;;7.20;;
63087;SDS011;49173;43.164;27.786;2024-01-16T05:02:35;9.00;;;5.70;;
63087;SDS011;49173;43.164;27.786;2024-01-16T05:05:05;8.65;;;6.35;;
63087;SDS011;49173;43.164;27.786;2024-01-16T05:07:34;8.45;;;6.32;;
63087;SDS011;49173;43.164;27.786;2024-01-16T05:10:03;11.55;;;8.30;;
63087;SDS011;49173;43.164;27.786;2024-01-16T05:12:33;12.10;;;7.40;;
63087;SDS011;49173;43.164;27.786;2024-01-16T05:14:59;10.60;;;7.35;;
63087;SDS011;49173;43.164;27.786;2024-01-16T05:17:34;12.05;;;6.25;;
63087;SDS011;49173;43.164;27.786;2024-01-16T05:20:02;8.80;;;6.07;;
63087;SDS011;49173;43.164;27.786;2024-01-16T05:22:31;12.18;;;6.75;;
63087;SDS011;49173;43.164;27.786;2024-01-16T05:24:58;13.43;;;8.63;;
63087;SDS011;49173;43.164;27.786;2024-01-16T05:27:28;15.05;;;8.48;;
63087;SDS011;49173;43.164;27.786;2024-01-16T05:29:54;12.43;;;8.82;;
63087;SDS011;49173;43.164;27.786;2024-01-16T05:32:24;15.15;;;10.50;;
63087;SDS011;49173;43.164;27.786;2024-01-16T05:34:54;15.25;;;9.88;;
63087;SDS011;49173;43.164;27.786;2024-01-16T05:37:20;17.58;;;11.45;;
63087;SDS011;49173;43.164;27.786;2024-01-16T05:39:49;20.17;;;13.93;;
63087;SDS011;49173;43.164;27.786;2024-01-16T05:42:18;22.77;;;15.70;;
63087;SDS011;49173;43.164;27.786;2024-01-16T05:44:48;24.27;;;16.27;;
63087;SDS011;49173;43.164;27.786;2024-01-16T05:47:19;29.45;;;19.67;;
63087;SDS011;49173;43.164;27.786;2024-01-16T05:49:45;30.50;;;19.63;;
63087;SDS011;49173;43.164;27.786;2024-01-16T05:52:16;28.65;;;17.80;;
63087;SDS011;49173;43.164;27.786;2024-01-16T05:54:43;23.83;;;15.32;;
63087;SDS011;49173;43.164;27.786;2024-01-16T05:57:13;21.02;;;13.63;;
63087;SDS011;49173;43.164;27.786;2024-01-16T05:59:39;24.80;;;15.63;;
63087;SDS011;49173;43.164;27.786;2024-01-16T06:02:08;22.67;;;13.50;;
63087;SDS011;49173;43.164;27.786;2024-01-16T06:04:36;23.17;;;13.38;;
63087;SDS011;49173;43.164;27.786;2024-01-16T06:07:07;30.73;;;16.35;;
63087;SDS011;49173;43.164;27.786;2024-01-16T06:09:40;31.23;;;18.08;;
63087;SDS011;49173;43.164;27.786;2024-01-16T06:12:06;25.20;;;14.70;;
63087;SDS011;49173;43.164;27.786;2024-01-16T06:14:37;22.38;;;15.20;;
63087;SDS011;49173;43.164;27.786;2024-01-16T06:17:09;20.65;;;12.07;;
63087;SDS011;49173;43.164;27.786;2024-01-16T06:19:36;21.50;;;12.13;;
63087;SDS011;49173;43.164;27.786;2024-01-16T06:22:02;13.98;;;10.65;;
63087;SDS011;49173;43.164;27.786;2024-01-16T06:24:34;16.92;;;9.70;;
63087;SDS011;49173;43.164;27.786;2024-01-16T06:27:08;14.73;;;9.35;;
63087;SDS011;49173;43.164;27.786;2024-01-16T06:29:35;17.25;;;9.45;;
63087;SDS011;49173;43.164;27.786;2024-01-16T06:32:06;15.73;;;8.77;;
63087;SDS011;49173;43.164;27.786;2024-01-16T06:34:37;24.25;;;10.38;;
63087;SDS011;49173;43.164;27.786;2024-01-16T06:37:09;18.63;;;11.90;;
63087;SDS011;49173;43.164;27.786;2024-01-16T06:39:37;15.95;;;10.68;;
63087;SDS011;49173;43.164;27.786;2024-01-16T06:42:05;22.23;;;11.15;;
63087;SDS011;49173;43.164;27.786;2024-01-16T06:44:32;22.75;;;11.85;;
63087;SDS011;49173;43.164;27.786;2024-01-16T06:47:03;26.50;;;13.32;;
63087;SDS011;49173;43.164;27.786;2024-01-16T06:49:30;15.90;;;10.43;;
63087;SDS011;49173;43.164;27.786;2024-01-16T06:51:56;14.80;;;8.40;;
63087;SDS011;49173;43.164;27.786;2024-01-16T06:54:23;12.80;;;6.95;;
63087;SDS011;49173;43.164;27.786;2024-01-16T06:56:49;11.52;;;6.95;;
63087;SDS011;49173;43.164;27.786;2024-01-16T06:59:18;10.10;;;6.97;;
63087;SDS011;49173;43.164;27.786;2024-01-16T07:01:54;12.25;;;7.10;;
63087;SDS011;49173;43.164;27.786;2024-01-16T07:04:20;10.48;;;6.85;;
63087;SDS011;49173;43.164;27.786;2024-01-16T07:06:49;12.48;;;6.53;;
63087;SDS011;49173;43.164;27.786;2024-01-16T07:09:20;9.85;;;6.32;;
63087;SDS011;49173;43.164;27.786;2024-01-16T07:11:51;12.50;;;6.82;;
63087;SDS011;49173;43.164;27.786;2024-01-16T07:14:20;16.08;;;8.23;;
63087;SDS011;49173;43.164;27.786;2024-01-16T07:16:49;13.00;;;8.38;;
63087;SDS011;49173;43.164;27.786;2024-01-16T07:19:20;18.55;;;9.50;;
63087;SDS011;49173;43.164;27.786;2024-01-16T07:21:47;13.90;;;8.95;;
63087;SDS011;49173;43.164;27.786;2024-01-16T07:24:16;13.43;;;10.00;;
63087;SDS011;49173;43.164;27.786;2024-01-16T07:26:42;12.35;;;8.88;;
63087;SDS011;49173;43.164;27.786;2024-01-16T07:29:08;16.02;;;10.13;;
63087;SDS011;49173;43.164;27.786;2024-01-16T07:31:35;14.35;;;10.10;;
63087;SDS011;49173;43.164;27.786;2024-01-16T07:34:09;16.40;;;11.15;;
63087;SDS011;49173;43.164;27.786;2024-01-16T07:36:42;18.17;;;10.73;;
63087;SDS011;49173;43.164;27.786;2024-01-16T07:39:10;16.08;;;10.73;;
63087;SDS011;49173;43.164;27.786;2024-01-16T07:41:40;13.43;;;10.20;;
63087;SDS011;49173;43.164;27.786;2024-01-16T07:44:06;14.02;;;10.07;;
63087;SDS011;49173;43.164;27.786;2024-01-16T07:46:38;16.27;;;11.15;;
63087;SDS011;49173;43.164;27.786;2024-01-16T07:49:05;14.32;;;10.35;;
63087;SDS011;49173;43.164;27.786;2024-01-16T07:51:34;17.38;;;10.48;;
63087;SDS011;49173;43.164;27.786;2024-01-16T07:54:08;15.75;;;10.93;;
63087;SDS011;49173;43.164;27.786;2024-01-16T07:56:42;16.60;;;10.45;;
63087;SDS011;49173;43.164;27.786;2024-01-16T07:59:08;16.08;;;12.10;;
63087;SDS011;49173;43.164;27.786;2024-01-16T08:01:38;17.17;;;11.82;;
63087;SDS011;49173;43.164;27.786;2024-01-16T08:04:12;19.55;;;12.52;;
63087;SDS011;49173;43.164;27.786;2024-01-16T08:06:38;16.98;;;12.25;;
63087;SDS011;49173;43.164;27.786;2024-01-16T08:09:04;18.75;;;12.55;;
63087;SDS011;49173;43.164;27.786;2024-01-16T08:11:36;19.20;;;13.40;;
63087;SDS011;49173;43.164;27.786;2024-01-16T08:14:02;18.98;;;13.02;;
63087;SDS011;49173;43.164;27.786;2024-01-16T08:16:28;17.23;;;12.90;;
63087;SDS011;49173;43.164;27.786;2024-01-16T08:18:59;18.73;;;13.48;;
63087;SDS011;49173;43.164;27.786;2024-01-16T08:21:27;18.20;;;13.23;;
63087;SDS011;49173;43.164;27.786;2024-01-16T08:23:57;23.40;;;14.35;;
63087;SDS011;49173;43.164;27.786;2024-01-16T08:26:23;20.27;;;14.25;;
63087;SDS011;49173;43.164;27.786;2024-01-16T08:28:51;19.10;;;13.45;;
63087;SDS011;49173;43.164;27.786;2024-01-16T08:31:20;18.50;;;12.88;;
63087;SDS011;49173;43.164;27.786;2024-01-16T08:33:49;19.58;;;14.40;;
63087;SDS011;49173;43.164;27.786;2024-01-16T08:36:22;20.25;;;14.35;;
63087;SDS011;49173;43.164;27.786;2024-01-16T08:38:50;19.92;;;13.60;;
63087;SDS011;49173;43.164;27.786;2024-01-16T08:41:20;15.55;;;12.07;;
63087;SDS011;49173;43.164;27.786;2024-01-16T08:43:50;17.90;;;13.55;;
63087;SDS011;49173;43.164;27.786;2024-01-16T08:46:18;18.07;;;12.23;;
63087;SDS011;49173;43.164;27.786;2024-01-16T08:48:46;19.35;;;11.65;;
63087;SDS011;49173;43.164;27.786;2024-01-16T08:51:13;15.40;;;11.27;;
63087;SDS011;49173;43.164;27.786;2024-01-16T08:53:40;15.40;;;10.70;;
63087;SDS011;49173;43.164;27.786;2024-01-16T08:56:07;18.02;;;10.70;;
63087;SDS011;49173;43.164;27.786;2024-01-16T08:58:38;12.00;;;8.88;;
63087;SDS011;49173;43.164;27.786;2024-01-16T09:01:05;17.85;;;10.35;;
63087;SDS011;49173;43.164;27.786;2024-01-16T09:03:40;14.32;;;9.00;;
63087;SDS011;49173;43.164;27.786;2024-01-16T09:06:13;12.10;;;9.02;;
63087;SDS011;49173;43.164;27.786;2024-01-16T09:08:42;11.63;;;8.35;;
63087;SDS011;49173;43.164;27.786;2024-01-16T09:11:10;11.23;;;8.65;;
63087;SDS011;49173;43.164;27.786;2024-01-16T09:13:38;13.05;;;9.50;;
63087;SDS011;49173;43.164;27.786;2024-01-16T09:16:07;12.85;;;8.88;;
63087;SDS011;49173;43.164;27.786;2024-01-16T09:18:33;10.65;;;8.15;;
63087;SDS011;49173;43.164;27.786;2024-01-16T09:20:59;10.30;;;7.57;;
63087;SDS011;49173;43.164;27.786;2024-01-16T09:23:26;9.50;;;7.35;;
63087;SDS011;49173;43.164;27.786;2024-01-16T09:25:53;9.50;;;7.18;;
63087;SDS011;49173;43.164;27.786;2024-01-16T09:28:24;9.93;;;6.72;;
63087;SDS011;49173;43.164;27.786;2024-01-16T09:31:00;9.45;;;7.07;;
63087;SDS011;49173;43.164;27.786;2024-01-16T09:33:31;8.48;;;7.03;;
63087;SDS011;49173;43.164;27.786;2024-01-16T09:35:57;9.55;;;6.65;;
63087;SDS011;49173;43.164;27.786;2024-01-16T09:38:27;9.32;;;6.93;;
63087;SDS011;49173;43.164;27.786;2024-01-16T09:40:56;8.52;;;6.57;;
63087;SDS011;49173;43.164;27.786;2024-01-16T09:43:29;11.70;;;7.45;;
63087;SDS011;49173;43.164;27.786;2024-01-16T09:46:00;9.30;;;6.95;;
63087;SDS011;49173;43.164;27.786;2024-01-16T09:48:31;10.50;;;7.30;;
63087;SDS011;49173;43.164;27.786;2024-01-16T09:50:58;13.30;;;7.85;;
63087;SDS011;49173;43.164;27.786;2024-01-16T09:53:32;12.65;;;7.93;;
63087;SDS011;49173;43.164;27.786;2024-01-16T09:56:02;14.18;;;7.40;;
63087;SDS011;49173;43.164;27.786;2024-01-16T09:58:39;8.30;;;6.45;;
63087;SDS011;49173;43.164;27.786;2024-01-16T10:01:15;9.95;;;7.20;;
63087;SDS011;49173;43.164;27.786;2024-01-16T10:03:45;11.95;;;6.60;;
63087;SDS011;49173;43.164;27.786;2024-01-16T10:06:19;8.25;;;5.82;;
63087;SDS011;49173;43.164;27.786;2024-01-16T10:08:49;7.65;;;5.38;;
63087;SDS011;49173;43.164;27.786;2024-01-16T10:11:21;7.97;;;5.70;;
63087;SDS011;49173;43.164;27.786;2024-01-16T10:13:51;7.95;;;5.78;;
63087;SDS011;49173;43.164;27.786;2024-01-16T10:19:50;7.97;;;4.50;;
63087;SDS011;49173;43.164;27.786;2024-01-16T10:22:23;5.68;;;4.05;;
63087;SDS011;49173;43.164;27.786;2024-01-16T10:25:08;8.38;;;4.75;;
63087;SDS011;49173;43.164;27.786;2024-01-16T10:27:48;7.55;;;4.53;;
63087;SDS011;49173;43.164;27.786;2024-01-16T10:30:33;7.78;;;4.53;;
63087;SDS011;49173;43.164;27.786;2024-01-16T10:33:13;7.15;;;4.20;;
63087;SDS011;49173;43.164;27.786;2024-01-16T10:35:42;8.65;;;4.03;;
63087;SDS011;49173;43.164;27.786;2024-01-16T10:38:19;8.57;;;3.75;;
63087;SDS011;49173;43.164;27.786;2024-01-16T10:40:48;5.40;;;3.60;;
63087;SDS011;49173;43.164;27.786;2024-01-16T10:43:36;7.25;;;4.28;;
63087;SDS011;49173;43.164;27.786;2024-01-16T10:46:11;7.07;;;3.65;;
63087;SDS011;49173;43.164;27.786;2024-01-16T10:48:45;8.25;;;3.58;;
63087;SDS011;49173;43.164;27.786;2024-01-16T10:51:31;7.97;;;4.25;;
63087;SDS011;49173;43.164;27.786;2024-01-16T10:54:02;6.13;;;4.13;;
63087;SDS011;49173;43.164;27.786;2024-01-16T10:56:35;5.78;;;3.70;;
63087;SDS011;49173;43.164;27.786;2024-01-16T10:59:21;7.22;;;4.70;;
63087;SDS011;49173;43.164;27.786;2024-01-16T11:01:56;5.55;;;3.38;;
63087;SDS011;49173;43.164;27.786;2024-01-16T11:04:30;4.30;;;3.10;;
63087;SDS011;49173;43.164;27.786;2024-01-16T11:06:56;6.07;;;3.95;;
63087;SDS011;49173;43.164;27.786;2024-01-16T11:09:24;4.40;;;2.90;;
63087;SDS011;49173;43.164;27.786;2024-01-16T11:11:58;4.90;;;2.83;;
63087;SDS011;49173;43.164;27.786;2024-01-16T11:14:25;5.10;;;2.75;;
63087;SDS011;49173;43.164;27.786;2024-01-16T11:16:55;8.93;;;3.70;;
63087;SDS011;49173;43.164;27.786;2024-01-16T11:19:31;4.68;;;3.00;;
63087;SDS011;49173;43.164;27.786;2024-01-16T11:22:01;4.65;;;3.42;;
63087;SDS011;49173;43.164;27.786;2024-01-16T11:24:30;11.77;;;3.03;;
63087;SDS011;49173;43.164;27.786;2024-01-16T11:26:56;5.72;;;2.45;;
63087;SDS011;49173;43.164;27.786;2024-01-16T11:31:57;8.05;;;3.00;;
63087;SDS011;49173;43.164;27.786;2024-01-16T11:37:08;4.40;;;2.63;;
63087;SDS011;49173;43.164;27.786;2024-01-16T11:39:39;4.32;;;2.47;;
63087;SDS011;49173;43.164;27.786;2024-01-16T11:42:08;3.15;;;2.22;;
63087;SDS011;49173;43.164;27.786;2024-01-16T11:44:48;4.88;;;2.50;;
63087;SDS011;49173;43.164;27.786;2024-01-16T11:47:20;3.72;;;2.40;;
63087;SDS011;49173;43.164;27.786;2024-01-16T11:50:09;3.33;;;2.30;;
63087;SDS011;49173;43.164;27.786;2024-01-16T11:52:43;4.85;;;2.85;;
63087;SDS011;49173;43.164;27.786;2024-01-16T11:55:29;5.50;;;3.05;;
63087;SDS011;49173;43.164;27.786;2024-01-16T11:58:26;4.90;;;2.83;;
63087;SDS011;49173;43.164;27.786;2024-01-16T12:01:17;5.28;;;3.00;;
63087;SDS011;49173;43.164;27.786;2024-01-16T12:04:00;5.75;;;3.40;;
63087;SDS011;49173;43.164;27.786;2024-01-16T12:06:31;12.00;;;5.45;;
63087;SDS011;49173;43.164;27.786;2024-01-16T12:09:11;7.78;;;4.75;;
63087;SDS011;49173;43.164;27.786;2024-01-16T12:11:41;13.57;;;6.95;;
63087;SDS011;49173;43.164;27.786;2024-01-16T12:14:14;9.40;;;5.82;;
63087;SDS011;49173;43.164;27.786;2024-01-16T12:16:40;8.27;;;4.10;;
63087;SDS011;49173;43.164;27.786;2024-01-16T12:19:16;10.98;;;4.30;;
63087;SDS011;49173;43.164;27.786;2024-01-16T12:21:45;5.95;;;3.53;;
63087;SDS011;49173;43.164;27.786;2024-01-16T12:24:12;5.95;;;3.50;;
63087;SDS011;49173;43.164;27.786;2024-01-16T12:26:43;8.02;;;3.67;;
63087;SDS011;49173;43.164;27.786;2024-01-16T12:29:09;8.32;;;3.28;;
63087;SDS011;49173;43.164;27.786;2024-01-16T12:31:43;7.70;;;3.05;;
63087;SDS011;49173;43.164;27.786;2024-01-16T12:34:13;5.40;;;2.80;;
63087;SDS011;49173;43.164;27.786;2024-01-16T12:36:42;6.13;;;3.08;;
63087;SDS011;49173;43.164;27.786;2024-01-16T12:39:12;4.63;;;3.20;;
63087;SDS011;49173;43.164;27.786;2024-01-16T12:41:44;5.40;;;3.15;;
63087;SDS011;49173;43.164;27.786;2024-01-16T12:44:14;7.93;;;3.42;;
63087;SDS011;49173;43.164;27.786;2024-01-16T12:46:56;9.35;;;3.42;;
63087;SDS011;49173;43.164;27.786;2024-01-16T12:49:29;5.63;;;3.55;;
63087;SDS011;49173;43.164;27.786;2024-01-16T12:54:59;6.10;;;4.43;;
63087;SDS011;49173;43.164;27.786;2024-01-16T12:57:35;7.22;;;4.30;;
63087;SDS011;49173;43.164;27.786;2024-01-16T13:00:25;10.07;;;4.18;;
63087;SDS011;49173;43.164;27.786;2024-01-16T13:02:57;7.47;;;3.95;;
63087;SDS011;49173;43.164;27.786;2024-01-16T13:05:26;7.47;;;4.20;;
63087;SDS011;49173;43.164;27.786;2024-01-16T13:08:02;6.13;;;4.20;;
63087;SDS011;49173;43.164;27.786;2024-01-16T13:10:28;5.15;;;3.92;;
63087;SDS011;49173;43.164;27.786;2024-01-16T13:13:15;6.20;;;4.10;;
63087;SDS011;49173;43.164;27.786;2024-01-16T13:15:50;6.20;;;3.97;;
63087;SDS011;49173;43.164;27.786;2024-01-16T13:18:23;5.97;;;3.70;;
63087;SDS011;49173;43.164;27.786;2024-01-16T13:20:52;8.90;;;3.90;;
63087;SDS011;49173;43.164;27.786;2024-01-16T13:23:22;6.50;;;4.38;;
63087;SDS011;49173;43.164;27.786;2024-01-16T13:25:51;5.07;;;3.97;;
63087;SDS011;49173;43.164;27.786;2024-01-16T13:28:19;6.68;;;4.20;;
63087;SDS011;49173;43.164;27.786;2024-01-16T13:30:52;5.72;;;3.80;;
63087;SDS011;49173;43.164;27.786;2024-01-16T13:33:25;5.95;;;4.10;;
63087;SDS011;49173;43.164;27.786;2024-01-16T13:35:55;9.48;;;4.00;;
63087;SDS011;49173;43.164;27.786;2024-01-16T13:38:21;7.05;;;4.22;;
63087;SDS011;49173;43.164;27.786;2024-01-16T13:40:59;10.10;;;4.18;;
63087;SDS011;49173;43.164;27.786;2024-01-16T13:43:34;5.07;;;3.90;;
63087;SDS011;49173;43.164;27.786;2024-01-16T13:46:00;5.85;;;3.90;;
63087;SDS011;49173;43.164;27.786;2024-01-16T13:48:29;5.17;;;4.43;;
63087;SDS011;49173;43.164;27.786;2024-01-16T13:50:58;7.63;;;4.57;;
63087;SDS011;49173;43.164;27.786;2024-01-16T13:53:35;6.38;;;4.60;;
63087;SDS011;49173;43.164;27.786;2024-01-16T13:56:08;7.90;;;4.65;;
63087;SDS011;49173;43.164;27.786;2024-01-16T13:58:37;7.25;;;3.92;;
63087;SDS011;49173;43.164;27.786;2024-01-16T14:01:11;6.57;;;4.72;;
63087;SDS011;49173;43.164;27.786;2024-01-16T14:03:50;6.53;;;4.45;;
63087;SDS011;49173;43.164;27.786;2024-01-16T14:06:27;5.13;;;4.20;;
63087;SDS011;49173;43.164;27.786;2024-01-16T14:09:01;8.07;;;4.40;;
63087;SDS011;49173;43.164;27.786;2024-01-16T14:11:31;7.40;;;4.45;;
63087;SDS011;49173;43.164;27.786;2024-01-16T14:14:03;7.15;;;5.43;;
63087;SDS011;49173;43.164;27.786;2024-01-16T14:16:33;5.38;;;4.13;;
63087;SDS011;49173;43.164;27.786;2024-01-16T14:19:04;8.88;;;4.95;;
63087;SDS011;49173;43.164;27.786;2024-01-16T14:21:34;6.88;;;5.15;;
63087;SDS011;49173;43.164;27.786;2024-01-16T14:24:06;8.30;;;5.72;;
63087;SDS011;49173;43.164;27.786;2024-01-16T14:26:33;6.28;;;4.85;;
63087;SDS011;49173;43.164;27.786;2024-01-16T14:29:02;7.63;;;5.35;;
63087;SDS011;49173;43.164;27.786;2024-01-16T14:31:33;6.85;;;5.45;;
63087;SDS011;49173;43.164;27.786;2024-01-16T14:33:59;8.45;;;6.00;;
63087;SDS011;49173;43.164;27.786;2024-01-16T14:36:30;8.80;;;5.43;;
63087;SDS011;49173;43.164;27.786;2024-01-16T14:38:56;9.73;;;6.97;;
63087;SDS011;49173;43.164;27.786;2024-01-16T14:41:22;7.82;;;5.78;;
63087;SDS011;49173;43.164;27.786;2024-01-16T14:43:51;8.95;;;6.05;;
63087;SDS011;49173;43.164;27.786;2024-01-16T14:46:19;6.93;;;5.60;;
63087;SDS011;49173;43.164;27.786;2024-01-16T14:48:45;10.00;;;5.88;;
63087;SDS011;49173;43.164;27.786;2024-01-16T14:51:13;11.88;;;6.22;;
63087;SDS011;49173;43.164;27.786;2024-01-16T14:53:44;7.95;;;6.18;;
63087;SDS011;49173;43.164;27.786;2024-01-16T14:56:10;9.23;;;6.00;;